Thunder radar more information blitzortung!


Radar de pluja more information rain snow radar


Visita la nostra xarxa de llocs de meteo:

Template documentation
and downloads

And another site



No particular awareness of the weather is required.    There are no Weather-warnings

Pagina Historial Weather Underground text

Diari Resum January 3, 2018 Unitats:  Imperial    Mètric   Tant
« Previous Dia
SegĂźent Dia »
Diari Setmana Mensual Anual Personalitzada
  Maxima: Minima: Media:
Temperatura: TemperatureC °F 10.1 °F 17 °F
Punt de rosada: DewpointC °F 5.5 °F 8.4 °F
Humitat: Humidity % 44 % 57 %
Wind Speed: WindSpeedKMH mph 0.0 mph 12 mph
RĂ fegues de vent: WindSpeedGustKMH mph - -
Vent:- - WSW
Pression baro: PressurehPa in 1018.8 in -
Precipitacions: 0.0 in    
Historical Graphs
 
 
Dades de taula per January 3, 2018
Temps Temperatura Punt de rosada Pression baro Vent Wind Speed RĂ fegues de vent Humitat Rainfall Rate (Hourly)
TemperatureC °F DewpointC °F PressurehPa in Calm     Humidity % HourlyPrecipMM in
00:03 12.4 °F 6.4 °F 1022.9 in NNE 5.6 mph 5.6 mph 67 % 0.0 in
00:07 12.4 °F 6.4 °F 1022.9 in West 3.7 mph 3.7 mph 67 % 0.0 in
00:10 11.8 °F 6.3 °F 1022.9 in NNW 3.2 mph 4.8 mph 69 % 0.0 in
00:20 11.4 °F 5.9 °F 1022.9 in NW 3.2 mph 4.8 mph 69 % 0.0 in
00:30 11.3 °F 6.0 °F 1022.9 in NW 4.8 mph 4.8 mph 70 % 0.0 in
00:40 11.0 °F 5.7 °F 1022.9 in Calm   4.8 mph 70 % 0.0 in
00:50 11.0 °F 5.9 °F 1022.9 in WNW 3.2 mph 3.2 mph 71 % 0.0 in
01:10 10.7 °F 5.8 °F 1022.9 in North 3.2 mph 4.8 mph 72 % 0.0 in
01:20 10.8 °F 5.9 °F 1022.9 in North 1.6 mph 3.2 mph 72 % 0.0 in
01:30 10.8 °F 5.9 °F 1022.9 in North 1.6 mph 3.2 mph 72 % 0.0 in
01:40 10.5 °F 5.7 °F 1022.9 in North 1.6 mph 3.2 mph 72 % 0.0 in
01:50 10.4 °F 5.8 °F 1022.9 in NNE 1.6 mph 3.2 mph 73 % 0.0 in
02:00 10.4 °F 5.8 °F 1022.9 in NE 1.6 mph 4.8 mph 73 % 0.0 in
02:10 10.4 °F 5.8 °F 1022.9 in NNW 1.6 mph 3.2 mph 73 % 0.0 in
02:20 10.5 °F 5.9 °F 1023.9 in WNW 1.6 mph 3.2 mph 73 % 0.0 in
02:40 10.1 °F 5.5 °F 1022.9 in WSW 1.6 mph 3.2 mph 73 % 0.0 in
02:50 10.5 °F 6.1 °F 1022.9 in NNW 3.2 mph 4.8 mph 74 % 0.0 in
03:00 11.0 °F 6.6 °F 1022.9 in NE 4.8 mph 4.8 mph 74 % 0.0 in
03:10 11.3 °F 6.8 °F 1022.9 in NE 3.2 mph 4.8 mph 74 % 0.0 in
03:20 11.4 °F 6.9 °F 1022.9 in Calm   3.2 mph 74 % 0.0 in
03:30 11.5 °F 6.8 °F 1022.9 in NNE 3.2 mph 3.2 mph 73 % 0.0 in
03:40 11.6 °F 6.9 °F 1023.9 in NE 3.2 mph 6.4 mph 73 % 0.0 in
03:50 11.7 °F 7.0 °F 1023.9 in NE 1.6 mph 4.8 mph 73 % 0.0 in
04:00 12.5 °F 7.8 °F 1023.9 in ESE 1.6 mph 9.7 mph 73 % 0.0 in
04:10 13.2 °F 8.3 °F 1022.9 in ENE 3.2 mph 9.7 mph 72 % 0.0 in
04:30 14.3 °F 9.1 °F 1023.9 in WNW 3.2 mph 4.8 mph 71 % 0.0 in
10:35 14.9 °F 9.3 °F 1023.9 in ENE 8.7 mph 8.7 mph 69 % 0.0 in
10:36 14.9 °F 9.3 °F 1023.9 in ENE 9.3 mph 9.3 mph 69 % 0.0 in
10:37 14.9 °F 9.3 °F 1022.9 in East 13.0 mph 13.0 mph 69 % 0.0 in
10:42 14.6 °F 8.8 °F 1022.9 in NNW 5.6 mph 5.6 mph 68 % 0.0 in
10:47 15.1 °F 9.4 °F 1022.9 in West 7.4 mph 7.4 mph 69 % 0.0 in
10:49 15.2 °F 9.6 °F 1022.9 in North 9.3 mph 9.3 mph 69 % 0.0 in
10:54 15.5 °F 9.6 °F 1023.9 in NNW 14.8 mph 14.8 mph 68 % 0.0 in
10:55 15.5 °F 9.6 °F 1023.9 in NW 14.8 mph 14.8 mph 68 % 0.0 in
11:00 15.6 °F 9.5 °F 1023.9 in WNW 8.0 mph 16.1 mph 67 % 0.0 in
11:05 15.8 °F 9.4 °F 1023.9 in West 24.1 mph 24.1 mph 66 % 0.0 in
11:06 15.8 °F 9.4 °F 1023.9 in North 11.1 mph 11.1 mph 66 % 0.0 in
11:09 15.9 °F 9.6 °F 1022.9 in SSW 18.5 mph 18.5 mph 66 % 0.0 in
11:13 16.0 °F 9.4 °F 1022.9 in WSW 18.5 mph 18.5 mph 65 % 0.0 in
11:14 16.1 °F 9.5 °F 1022.9 in East 9.3 mph 9.3 mph 65 % 0.0 in
11:19 16.1 °F 9.3 °F 1022.9 in West 13.0 mph 13.0 mph 64 % 0.0 in
11:21 16.2 °F 9.4 °F 1022.9 in South 14.8 mph 14.8 mph 64 % 0.0 in
11:24 16.2 °F 9.4 °F 1022.9 in WNW 16.7 mph 16.7 mph 64 % 0.0 in
11:26 16.2 °F 9.4 °F 1022.9 in SW 14.5 mph 14.5 mph 64 % 0.0 in
11:30 16.3 °F 9.5 °F 1022.9 in West 15.8 mph 15.8 mph 64 % 0.0 in
11:33 16.3 °F 9.2 °F 1022.9 in WNW 20.4 mph 20.4 mph 63 % 0.0 in
11:36 16.4 °F 9.3 °F 1022.9 in NW 27.8 mph 27.8 mph 63 % 0.0 in
11:40 16.5 °F 9.4 °F 1022.9 in NW 14.8 mph 14.8 mph 63 % 0.0 in
11:41 16.6 °F 9.5 °F 1022.9 in SSW 14.8 mph 14.8 mph 63 % 0.0 in
11:47 16.6 °F 9.5 °F 1022.9 in WSW 16.7 mph 16.7 mph 63 % 0.0 in
11:53 16.8 °F 9.7 °F 1022.9 in WSW 13.0 mph 13.0 mph 63 % 0.0 in
11:58 16.9 °F 9.8 °F 1022.9 in WSW 10.0 mph 10.0 mph 63 % 0.0 in
11:59 16.9 °F 9.6 °F 1022.9 in WSW 9.3 mph 9.7 mph 62 % 0.0 in
12:04 17.0 °F 9.4 °F 1022.9 in WSW 14.8 mph 14.8 mph 61 % 0.0 in
12:06 17.0 °F 9.4 °F 1022.9 in West 13.0 mph 13.0 mph 61 % 0.0 in
12:10 17.0 °F 9.4 °F 1022.9 in WSW 18.5 mph 18.5 mph 61 % 0.0 in
12:15 17.0 °F 9.2 °F 1022.9 in West 19.5 mph 19.5 mph 60 % 0.0 in
12:17 17.1 °F 9.3 °F 1022.9 in West 20.4 mph 20.4 mph 60 % 0.0 in
12:21 17.3 °F 9.4 °F 1022.9 in West 22.2 mph 22.2 mph 60 % 0.0 in
12:23 17.4 °F 9.6 °F 1021.9 in SW 15.8 mph 15.8 mph 60 % 0.0 in
12:28 17.5 °F 9.7 °F 1021.9 in SW 16.7 mph 16.7 mph 60 % 0.0 in
12:29 17.5 °F 9.4 °F 1021.9 in West 29.6 mph 29.6 mph 59 % 0.0 in
12:31 17.6 °F 9.7 °F 1021.9 in West 13.0 mph 13.0 mph 60 % 0.0 in
12:34 17.6 °F 9.5 °F 1021.9 in WNW 11.1 mph 11.1 mph 59 % 0.0 in
12:39 17.6 °F 9.5 °F 1021.9 in WNW 16.7 mph 16.7 mph 59 % 0.0 in
12:40 17.6 °F 9.5 °F 1021.9 in West 11.3 mph 27.4 mph 59 % 0.0 in
12:45 17.7 °F 9.6 °F 1021.9 in West 9.7 mph 14.5 mph 59 % 0.0 in
12:46 17.7 °F 9.6 °F 1021.9 in West 20.1 mph 20.1 mph 59 % 0.0 in
12:50 17.7 °F 9.6 °F 1021.9 in WSW 18.5 mph 18.5 mph 59 % 0.0 in
12:52 17.7 °F 9.6 °F 1021.9 in WSW 13.0 mph 13.0 mph 59 % 0.0 in
12:57 17.7 °F 9.6 °F 1021.9 in WNW 22.2 mph 22.2 mph 59 % 0.0 in
13:01 17.7 °F 9.6 °F 1021.9 in WNW 14.8 mph 14.8 mph 59 % 0.0 in
13:03 17.7 °F 9.6 °F 1021.9 in NNW 15.6 mph 15.6 mph 59 % 0.0 in
13:08 17.8 °F 9.7 °F 1021.9 in SSW 14.5 mph 14.5 mph 59 % 0.0 in
13:10 17.9 °F 9.5 °F 1021.9 in WSW 20.4 mph 20.4 mph 58 % 0.0 in
13:14 18.0 °F 9.6 °F 1021.9 in West 16.7 mph 16.7 mph 58 % 0.0 in
13:18 18.1 °F 9.7 °F 1021.9 in West 11.1 mph 11.1 mph 58 % 0.0 in
13:20 18.2 °F 9.8 °F 1021.9 in West 13.0 mph 13.0 mph 58 % 0.0 in
13:25 18.3 °F 9.9 °F 1021.9 in West 21.2 mph 21.2 mph 58 % 0.0 in
13:26 18.3 °F 9.9 °F 1021.9 in WNW 22.2 mph 22.2 mph 58 % 0.0 in
13:30 18.4 °F 10.0 °F 1021.9 in NNW 14.8 mph 14.8 mph 58 % 0.0 in
13:35 18.4 °F 9.7 °F 1021.9 in NW 15.8 mph 15.8 mph 57 % 0.0 in
13:36 18.5 °F 9.8 °F 1021.9 in WSW 14.8 mph 14.8 mph 57 % 0.0 in
13:41 18.5 °F 9.8 °F 1021.9 in WNW 14.8 mph 14.8 mph 57 % 0.0 in
13:43 18.5 °F 9.8 °F 1021.9 in NW 13.0 mph 13.0 mph 57 % 0.0 in
13:48 18.6 °F 9.7 °F 1021.9 in WNW 25.9 mph 25.9 mph 56 % 0.0 in
13:50 18.6 °F 9.7 °F 1021.9 in WNW 18.5 mph 18.5 mph 56 % 0.0 in
13:51 18.7 °F 9.7 °F 1021.9 in WNW 16.7 mph 16.7 mph 56 % 0.0 in
13:56 18.7 °F 9.7 °F 1021.9 in WSW 20.4 mph 20.4 mph 56 % 0.0 in
13:59 18.7 °F 9.7 °F 1021.9 in WNW 24.1 mph 24.1 mph 56 % 0.0 in
14:03 18.8 °F 9.8 °F 1021.9 in SW 24.1 mph 24.1 mph 56 % 0.0 in
14:04 18.8 °F 9.6 °F 1021.9 in WNW 27.8 mph 27.8 mph 55 % 0.0 in
14:09 18.9 °F 9.7 °F 1021.9 in West 16.9 mph 16.9 mph 55 % 0.0 in
14:10 18.9 °F 9.7 °F 1021.9 in West 23.7 mph 23.7 mph 55 % 0.0 in
14:13 18.9 °F 9.7 °F 1021.9 in West 20.4 mph 20.4 mph 55 % 0.0 in
14:19 19.1 °F 9.6 °F 1021.9 in WNW 18.5 mph 18.5 mph 54 % 0.0 in
14:21 19.1 °F 9.6 °F 1020.9 in West 25.9 mph 25.9 mph 54 % 0.0 in
14:26 19.2 °F 9.7 °F 1020.9 in NNE 14.8 mph 14.8 mph 54 % 0.0 in
14:31 19.3 °F 9.8 °F 1020.9 in WSW 15.8 mph 15.8 mph 54 % 0.0 in
14:34 19.3 °F 9.5 °F 1020.9 in WNW 14.8 mph 14.8 mph 53 % 0.0 in
14:39 19.4 °F 9.6 °F 1021.9 in West 13.0 mph 13.0 mph 53 % 0.0 in
14:41 19.4 °F 9.6 °F 1021.9 in NW 13.0 mph 13.0 mph 53 % 0.0 in
14:46 19.5 °F 9.7 °F 1021.9 in WSW 20.4 mph 20.4 mph 53 % 0.0 in
14:47 19.5 °F 9.7 °F 1021.9 in WSW 16.7 mph 16.7 mph 53 % 0.0 in
14:52 19.6 °F 9.8 °F 1021.9 in WSW 11.9 mph 11.9 mph 53 % 0.0 in
14:53 19.7 °F 9.6 °F 1021.9 in West 14.8 mph 14.8 mph 52 % 0.0 in
14:59 19.7 °F 9.6 °F 1021.9 in WSW 16.9 mph 16.9 mph 52 % 0.0 in
15:01 19.7 °F 9.6 °F 1021.9 in NNW 20.4 mph 20.4 mph 52 % 0.0 in
15:04 19.8 °F 9.7 °F 1021.9 in SSW 13.0 mph 13.0 mph 52 % 0.0 in
15:09 20.1 °F 9.7 °F 1021.9 in WSW 9.3 mph 11.1 mph 51 % 0.0 in
15:10 20.1 °F 9.7 °F 1021.9 in West 9.3 mph 11.1 mph 51 % 0.0 in
15:15 20.1 °F 9.7 °F 1021.9 in WNW 24.1 mph 24.1 mph 51 % 0.0 in
15:17 20.2 °F 9.7 °F 1021.9 in WNW 13.0 mph 13.0 mph 51 % 0.0 in
15:22 20.3 °F 9.8 °F 1021.9 in SSW 10.3 mph 10.3 mph 51 % 0.0 in
15:25 20.4 °F 9.9 °F 1021.9 in West 8.0 mph 12.9 mph 51 % 0.0 in
15:27 20.5 °F 10.0 °F 1021.9 in WSW 9.3 mph 9.3 mph 51 % 0.0 in
15:35 20.6 °F 10.1 °F 1021.9 in West 9.3 mph 9.3 mph 51 % 0.0 in
15:40 20.5 °F 9.7 °F 1021.9 in WSW 11.1 mph 11.1 mph 50 % 0.0 in
15:45 20.4 °F 9.6 °F 1021.9 in West 11.1 mph 11.1 mph 50 % 0.0 in
15:47 20.4 °F 9.6 °F 1021.9 in West 11.1 mph 11.1 mph 50 % 0.0 in
15:52 20.4 °F 9.3 °F 1020.9 in WSW 14.8 mph 14.8 mph 49 % 0.0 in
15:54 20.3 °F 9.2 °F 1020.9 in WSW 9.3 mph 9.3 mph 49 % 0.0 in
15:59 20.3 °F 8.9 °F 1020.9 in WNW 18.5 mph 18.5 mph 48 % 0.0 in
16:04 20.2 °F 8.8 °F 1020.9 in WSW 7.4 mph 7.4 mph 48 % 0.0 in
16:05 20.2 °F 8.8 °F 1020.9 in NW 7.4 mph 7.4 mph 48 % 0.0 in
16:10 20.1 °F 8.7 °F 1021.9 in West 14.8 mph 14.8 mph 48 % 0.0 in
16:15 20.0 °F 8.7 °F 1021.9 in West 11.1 mph 11.1 mph 48 % 0.0 in
16:16 20.0 °F 8.7 °F 1021.9 in West 6.1 mph 6.1 mph 48 % 0.0 in
16:21 20.0 °F 8.3 °F 1021.9 in West 9.3 mph 9.3 mph 47 % 0.0 in
16:26 19.9 °F 8.6 °F 1021.9 in West 7.4 mph 7.4 mph 48 % 0.0 in
16:28 19.9 °F 8.6 °F 1021.9 in WSW 7.4 mph 7.4 mph 48 % 0.0 in
16:33 19.8 °F 8.2 °F 1021.9 in SW 9.3 mph 9.3 mph 47 % 0.0 in
16:38 19.7 °F 8.1 °F 1020.9 in SW 7.4 mph 7.4 mph 47 % 0.0 in
16:39 19.7 °F 8.1 °F 1020.9 in WSW 11.1 mph 11.1 mph 47 % 0.0 in
16:41 19.7 °F 8.1 °F 1020.9 in WSW 16.7 mph 16.7 mph 47 % 0.0 in
16:44 19.7 °F 7.7 °F 1020.9 in WSW 16.7 mph 16.7 mph 46 % 0.0 in
16:50 19.6 °F 7.7 °F 1020.9 in SW 9.3 mph 9.3 mph 46 % 0.0 in
16:51 19.6 °F 7.7 °F 1020.9 in SW 9.3 mph 9.3 mph 46 % 0.0 in
16:56 19.5 °F 7.6 °F 1021.9 in West 9.5 mph 9.5 mph 46 % 0.0 in
17:01 19.5 °F 7.6 °F 1021.9 in SW 9.5 mph 9.5 mph 46 % 0.0 in
17:02 19.4 °F 7.5 °F 1021.9 in West 9.3 mph 9.3 mph 46 % 0.0 in
17:07 19.3 °F 7.4 °F 1020.9 in SW 11.1 mph 11.1 mph 46 % 0.0 in
17:09 19.3 °F 7.4 °F 1020.9 in WSW 11.1 mph 11.1 mph 46 % 0.0 in
17:10 19.3 °F 7.4 °F 1020.9 in West 9.3 mph 9.3 mph 46 % 0.0 in
17:15 19.3 °F 7.1 °F 1020.9 in NW 9.7 mph 9.7 mph 45 % 0.0 in
17:21 19.4 °F 6.8 °F 1021.9 in West 20.4 mph 20.4 mph 44 % 0.0 in
17:24 19.3 °F 7.1 °F 1021.9 in West 9.3 mph 9.3 mph 45 % 0.0 in
17:28 19.2 °F 6.7 °F 1021.9 in SW 13.0 mph 13.0 mph 44 % 0.0 in
17:31 19.1 °F 6.6 °F 1021.9 in WSW 9.3 mph 9.3 mph 44 % 0.0 in
17:34 19.0 °F 6.4 °F 1021.9 in SW 11.1 mph 11.1 mph 44 % 0.0 in
17:37 19.1 °F 6.6 °F 1021.9 in SW 16.7 mph 16.7 mph 44 % 0.0 in
17:40 19.1 °F 6.6 °F 1021.9 in WSW 13.0 mph 13.0 mph 44 % 0.0 in
17:45 19.1 °F 6.6 °F 1021.9 in WNW 9.3 mph 9.3 mph 44 % 0.0 in
17:46 19.0 °F 6.4 °F 1021.9 in SW 11.1 mph 11.1 mph 44 % 0.0 in
17:51 19.0 °F 6.4 °F 1021.9 in West 16.7 mph 16.7 mph 44 % 0.0 in
17:53 18.9 °F 6.7 °F 1021.9 in WSW 11.1 mph 11.1 mph 45 % 0.0 in
18:01 18.8 °F 6.6 °F 1021.9 in SW 9.0 mph 9.0 mph 45 % 0.0 in
18:02 18.8 °F 6.6 °F 1021.9 in West 9.3 mph 9.3 mph 45 % 0.0 in
18:07 18.8 °F 6.6 °F 1021.9 in West 13.0 mph 13.0 mph 45 % 0.0 in
18:12 18.7 °F 6.5 °F 1021.9 in WSW 14.8 mph 14.8 mph 45 % 0.0 in
18:14 18.7 °F 6.5 °F 1021.9 in WNW 13.0 mph 13.0 mph 45 % 0.0 in
18:19 18.8 °F 6.6 °F 1021.9 in West 13.0 mph 13.0 mph 45 % 0.0 in
18:20 15.7 °F 8.7 °F 1021.9 in WSW 9.7 mph 14.5 mph 63 % 0.0 in
18:24 18.7 °F 6.8 °F 1021.9 in WNW 16.7 mph 16.7 mph 46 % 0.0 in
18:27 18.7 °F 6.8 °F 1021.9 in WNW 18.5 mph 18.5 mph 46 % 0.0 in
18:30 18.7 °F 6.8 °F 1021.9 in West 8.0 mph 19.3 mph 46 % 0.0 in
18:34 18.7 °F 7.2 °F 1021.9 in WSW 11.1 mph 11.1 mph 47 % 0.0 in
18:35 18.7 °F 7.2 °F 1021.9 in WNW 17.5 mph 17.5 mph 47 % 0.0 in
18:40 18.6 °F 7.1 °F 1021.9 in West 10.0 mph 10.0 mph 47 % 0.0 in
18:42 18.5 °F 7.3 °F 1021.9 in WSW 7.4 mph 7.4 mph 48 % 0.0 in
18:46 18.4 °F 7.2 °F 1021.9 in WNW 11.1 mph 11.1 mph 48 % 0.0 in
18:47 18.3 °F 7.1 °F 1021.9 in WSW 9.5 mph 9.5 mph 48 % 0.0 in
18:50 15.7 °F 8.9 °F 1021.9 in WSW 8.0 mph 12.9 mph 64 % 0.0 in
18:52 18.3 °F 7.4 °F 1021.9 in WSW 16.7 mph 16.7 mph 49 % 0.0 in
18:53 18.3 °F 7.4 °F 1021.9 in WSW 11.1 mph 11.1 mph 49 % 0.0 in
18:58 18.2 °F 7.3 °F 1021.9 in WSW 11.9 mph 11.9 mph 49 % 0.0 in
19:00 15.6 °F 8.8 °F 1021.9 in WSW 9.7 mph 9.7 mph 64 % 0.0 in
19:02 18.1 °F 7.2 °F 1021.9 in West 13.0 mph 13.0 mph 49 % 0.0 in
19:09 17.9 °F 7.3 °F 1021.9 in SW 9.3 mph 9.3 mph 50 % 0.0 in
19:12 18.0 °F 7.4 °F 1021.9 in West 16.7 mph 16.7 mph 50 % 0.0 in
19:16 18.0 °F 7.4 °F 1021.9 in West 9.3 mph 9.3 mph 50 % 0.0 in
19:18 18.0 °F 7.4 °F 1021.9 in West 11.1 mph 11.1 mph 50 % 0.0 in
19:20 15.8 °F 9.2 °F 1021.9 in WSW 4.8 mph 8.0 mph 65 % 0.0 in
19:23 17.9 °F 7.6 °F 1021.9 in WSW 9.3 mph 9.3 mph 51 % 0.0 in
19:28 17.9 °F 7.6 °F 1021.9 in WSW 14.8 mph 14.8 mph 51 % 0.0 in
19:29 17.9 °F 7.6 °F 1021.9 in West 14.8 mph 14.8 mph 51 % 0.0 in
19:30 15.7 °F 9.1 °F 1021.9 in West 4.8 mph 11.3 mph 65 % 0.0 in
19:34 17.8 °F 7.5 °F 1021.9 in West 11.1 mph 11.1 mph 51 % 0.0 in
19:37 17.8 °F 7.5 °F 1021.9 in West 16.7 mph 16.7 mph 51 % 0.0 in
19:40 17.8 °F 7.5 °F 1021.9 in WSW 13.0 mph 13.0 mph 51 % 0.0 in
19:44 17.7 °F 7.4 °F 1021.9 in SW 7.9 mph 7.9 mph 51 % 0.0 in
19:47 17.7 °F 7.7 °F 1021.9 in WSW 14.0 mph 14.0 mph 52 % 0.0 in
19:50 17.7 °F 7.7 °F 1021.9 in West 14.8 mph 14.8 mph 52 % 0.0 in
19:52 17.6 °F 7.6 °F 1021.9 in West 11.1 mph 11.1 mph 52 % 0.0 in
19:57 17.6 °F 7.6 °F 1021.9 in WNW 11.1 mph 11.1 mph 52 % 0.0 in
19:59 17.6 °F 7.6 °F 1021.9 in WNW 14.8 mph 14.8 mph 52 % 0.0 in
20:00 15.6 °F 9.1 °F 1021.9 in West 4.8 mph 9.7 mph 65 % 0.0 in
20:03 17.6 °F 7.9 °F 1021.9 in WNW 18.5 mph 18.5 mph 53 % 0.0 in
20:08 17.6 °F 7.9 °F 1021.9 in WSW 25.1 mph 25.1 mph 53 % 0.0 in
20:10 15.7 °F 9.1 °F 1020.9 in West 9.7 mph 9.7 mph 65 % 0.0 in
20:13 17.5 °F 7.8 °F 1021.9 in WSW 16.7 mph 16.7 mph 53 % 0.0 in
20:15 17.5 °F 7.8 °F 1021.9 in WSW 13.0 mph 13.0 mph 53 % 0.0 in
20:18 17.4 °F 7.7 °F 1021.9 in West 11.4 mph 11.4 mph 53 % 0.0 in
20:20 15.5 °F 8.9 °F 1020.9 in West 4.8 mph 11.3 mph 65 % 0.0 in
20:23 17.3 °F 7.9 °F 1022.9 in WSW 13.0 mph 13.0 mph 54 % 0.0 in
20:26 17.3 °F 7.9 °F 1022.9 in South 9.7 mph 9.7 mph 54 % 0.0 in
20:29 17.3 °F 7.9 °F 1022.9 in West 16.7 mph 16.7 mph 54 % 0.0 in
20:30 15.6 °F 9.3 °F 1020.9 in West 8.0 mph 12.9 mph 66 % 0.0 in
20:32 17.2 °F 7.8 °F 1022.9 in West 13.0 mph 13.0 mph 54 % 0.0 in
20:37 17.1 °F 7.7 °F 1021.9 in West 13.0 mph 13.0 mph 54 % 0.0 in
20:39 17.1 °F 8.0 °F 1021.9 in WSW 9.3 mph 9.3 mph 55 % 0.0 in
20:42 17.0 °F 7.9 °F 1021.9 in WSW 9.3 mph 9.3 mph 55 % 0.0 in
20:44 17.0 °F 7.9 °F 1021.9 in West 9.3 mph 9.3 mph 55 % 0.0 in
20:47 17.0 °F 7.9 °F 1021.9 in WSW 13.0 mph 13.0 mph 55 % 0.0 in
20:50 15.6 °F 9.3 °F 1020.9 in WSW 8.0 mph 12.9 mph 66 % 0.0 in
20:51 16.9 °F 8.1 °F 1021.9 in WSW 7.9 mph 7.9 mph 56 % 0.0 in
20:56 16.8 °F 8.2 °F 1021.9 in WSW 9.0 mph 9.0 mph 57 % 0.0 in
20:57 16.8 °F 8.2 °F 1021.9 in West 9.3 mph 9.3 mph 57 % 0.0 in
21:03 16.7 °F 8.4 °F 1021.9 in WSW 9.3 mph 9.3 mph 58 % 0.0 in
21:05 16.7 °F 8.4 °F 1021.9 in West 9.7 mph 9.7 mph 58 % 0.0 in
21:10 16.6 °F 8.3 °F 1022.9 in WSW 9.3 mph 9.3 mph 58 % 0.0 in
21:15 16.6 °F 8.6 °F 1022.9 in WSW 7.4 mph 7.4 mph 59 % 0.0 in
21:17 16.5 °F 8.4 °F 1022.9 in WSW 9.3 mph 9.3 mph 59 % 0.0 in
21:18 16.5 °F 8.4 °F 1022.9 in SW 9.3 mph 9.3 mph 59 % 0.0 in
21:20 15.7 °F 9.4 °F 1019.9 in West 9.7 mph 17.7 mph 66 % 0.0 in
21:23 16.4 °F 8.4 °F 1021.9 in WSW 7.4 mph 7.4 mph 59 % 0.0 in
21:28 16.4 °F 8.4 °F 1021.9 in WSW 9.3 mph 9.3 mph 59 % 0.0 in
21:29 16.4 °F 8.4 °F 1021.9 in SW 7.4 mph 7.4 mph 59 % 0.0 in
21:30 15.8 °F 9.2 °F 1019.9 in West 9.7 mph 12.9 mph 65 % 0.0 in
21:33 16.5 °F 8.7 °F 1021.9 in West 11.1 mph 11.1 mph 60 % 0.0 in
21:38 16.5 °F 8.7 °F 1022.9 in West 5.6 mph 5.6 mph 60 % 0.0 in
21:40 15.7 °F 9.1 °F 1019.9 in West 11.3 mph 11.3 mph 65 % 0.0 in
21:43 16.4 °F 8.6 °F 1022.9 in WSW 7.4 mph 7.4 mph 60 % 0.0 in
21:44 16.4 °F 8.6 °F 1022.9 in West 5.6 mph 5.6 mph 60 % 0.0 in
21:45 16.4 °F 8.6 °F 1022.9 in West 3.2 mph 9.7 mph 60 % 0.0 in
21:50 16.4 °F 8.6 °F 1022.9 in WNW 7.4 mph 7.4 mph 60 % 0.0 in
21:53 16.5 °F 8.9 °F 1022.9 in West 14.8 mph 14.8 mph 61 % 0.0 in
21:57 16.5 °F 8.9 °F 1022.9 in WSW 13.0 mph 13.0 mph 61 % 0.0 in
22:01 16.4 °F 8.8 °F 1022.9 in West 13.0 mph 13.0 mph 61 % 0.0 in
22:02 16.4 °F 8.8 °F 1022.9 in WSW 13.0 mph 13.0 mph 61 % 0.0 in
22:08 16.4 °F 8.8 °F 1021.9 in West 16.1 mph 16.1 mph 61 % 0.0 in
22:10 15.7 °F 9.1 °F 1019.9 in WSW 8.0 mph 14.5 mph 65 % 0.0 in
22:11 16.4 °F 8.8 °F 1021.9 in West 16.7 mph 16.7 mph 61 % 0.0 in
22:13 16.4 °F 8.8 °F 1021.9 in WSW 11.1 mph 11.1 mph 61 % 0.0 in
22:17 16.4 °F 8.8 °F 1021.9 in West 9.3 mph 9.3 mph 61 % 0.0 in
22:19 16.4 °F 8.8 °F 1021.9 in WNW 12.2 mph 12.2 mph 61 % 0.0 in
22:24 16.4 °F 8.8 °F 1022.9 in West 9.3 mph 9.3 mph 61 % 0.0 in
22:26 16.4 °F 8.8 °F 1022.9 in WSW 16.7 mph 16.7 mph 61 % 0.0 in
22:29 16.4 °F 8.8 °F 1022.9 in West 11.9 mph 11.9 mph 61 % 0.0 in
22:33 16.4 °F 8.8 °F 1022.9 in WSW 7.4 mph 7.4 mph 61 % 0.0 in
22:34 16.4 °F 8.8 °F 1022.9 in WNW 13.0 mph 13.0 mph 61 % 0.0 in
22:40 16.4 °F 8.8 °F 1022.9 in West 18.3 mph 18.3 mph 61 % 0.0 in
22:45 16.5 °F 8.9 °F 1022.9 in WSW 14.8 mph 14.8 mph 61 % 0.0 in
22:50 16.4 °F 8.8 °F 1022.9 in WSW 13.0 mph 13.0 mph 61 % 0.0 in
22:51 16.4 °F 8.8 °F 1022.9 in SW 13.0 mph 13.0 mph 61 % 0.0 in
22:56 16.5 °F 8.9 °F 1022.9 in WSW 9.3 mph 9.3 mph 61 % 0.0 in
23:01 16.4 °F 8.8 °F 1022.9 in NW 14.8 mph 14.8 mph 61 % 0.0 in
23:02 16.3 °F 8.8 °F 1022.9 in West 14.8 mph 14.8 mph 61 % 0.0 in
23:07 16.3 °F 9.0 °F 1022.9 in WSW 13.0 mph 13.0 mph 62 % 0.0 in
23:10 15.8 °F 9.2 °F 1019.9 in West 4.8 mph 19.3 mph 65 % 0.0 in
23:12 16.3 °F 9.0 °F 1022.9 in SW 13.0 mph 13.0 mph 62 % 0.0 in
23:17 16.3 °F 9.0 °F 1022.9 in WSW 13.0 mph 13.0 mph 62 % 0.0 in
23:20 15.8 °F 9.2 °F 1019.9 in WNW 9.7 mph 12.9 mph 65 % 0.0 in
23:22 16.2 °F 8.9 °F 1022.9 in WNW 7.4 mph 7.4 mph 62 % 0.0 in
23:23 16.2 °F 8.9 °F 1022.9 in WNW 9.3 mph 9.3 mph 62 % 0.0 in
23:29 16.1 °F 8.8 °F 1022.9 in WSW 16.1 mph 16.1 mph 62 % 0.0 in
23:30 15.9 °F 9.3 °F 1019.9 in WNW 11.3 mph 24.1 mph 65 % 0.0 in
23:34 16.1 °F 8.8 °F 1022.9 in WSW 14.8 mph 14.8 mph 62 % 0.0 in
23:35 16.1 °F 8.8 °F 1022.9 in WSW 14.8 mph 14.8 mph 62 % 0.0 in
23:36 16.1 °F 8.8 °F 1022.9 in NW 9.3 mph 9.5 mph 62 % 0.0 in
23:40 15.9 °F 9.3 °F 1019.9 in West 14.5 mph 16.1 mph 65 % 0.0 in
23:41 15.9 °F 8.6 °F 1022.9 in WNW 9.3 mph 9.3 mph 62 % 0.0 in
23:46 15.9 °F 8.6 °F 1022.9 in West 9.5 mph 9.5 mph 62 % 0.0 in
23:50 15.8 °F 9.2 °F 1018.8 in WSW 12.9 mph 12.9 mph 65 % 0.0 in
23:51 15.9 °F 8.8 °F 1022.9 in WNW 16.7 mph 16.7 mph 63 % 0.0 in
23:56 15.8 °F 8.8 °F 1021.9 in WSW 11.1 mph 11.1 mph 63 % 0.0 in
23:57 15.8 °F 8.8 °F 1021.9 in WSW 11.1 mph 11.1 mph 63 % 0.0 in
Meteo Sesrovires
Elogis d' Weather Underground - 4 mb

Guio original per  Jim McMurry - jmcmurry@mwt.net Adaptat per a la plantilla per  Wim van der Kuil - Leuven-Template.eu

Trobareu la nostra informacio del temps tambe a:

Weather Underground

AWEKAS